Maia — UBGE2 — position and weather

sailwx.info

Track history (hours):
 
Tides and Currents Weather Stations Pressure Air Temp Water Temp Dewpoint Dewpoint Depression Visibility Wind Speed Wind Dir Waves Ship Positions

Maia

Last reported at 2018-Jun-17 10:49 UTC. Time now 2018-Jun-25 08:21 UTC.
Position N 45°28' E 036°43'.

Length 141 m; draft 2.9 m.

Type: Tanker. MMSI: 273313860.

Date/timePositionNaut miles runAvg speedWind from/ knotsBaromVisibWave heightAir tempDewpointWater temp
2018-Jun-17 10:49N 45°28' E 036°43'3 8.6
2018-Jun-17 10:29N 45°25' E 036°42'4 8.0
2018-Jun-17 10:00N 45°21' E 036°40'3 6.6
2018-Jun-17 09:30N 45°20' E 036°36'6 5.6
2018-Jun-17 08:31N 45°17' E 036°29'0 1.0
2018-Jun-17 08:29N 45°17' E 036°29'11 0.6
2018-Jun-16 15:24N 45°07' E 036°33'5 7.8
2018-Jun-16 14:48N 45°10' E 036°28'2 8.5
2018-Jun-16 14:30N 45°12' E 036°28'4 8.1
2018-Jun-16 14:00N 45°17' E 036°28'3 5.9
2018-Jun-16 13:31N 45°19' E 036°31'4 8.1
2018-Jun-16 13:01N 45°20' E 036°36'4 7.3
2018-Jun-16 12:30N 45°23' E 036°40'4 7.2
2018-Jun-16 12:00N 45°27' E 036°41'3 5.1
2018-Jun-16 11:31N 45°29' E 036°40'0 0.0
2018-Jun-16 10:59N 45°29' E 036°40'0 0.1
2018-Jun-16 10:31N 45°29' E 036°40'4 7.1
2018-Jun-16 09:57N 45°31' E 036°45'  
Track history (hours):
 
Tides and Currents Weather Stations Pressure Air Temp Water Temp Dewpoint Dewpoint Depression Visibility Wind Speed Wind Dir Waves Ship Positions

Maia

Last reported at 2018-Jun-17 10:49 UTC. Time now 2018-Jun-25 08:21 UTC.
Position N 45°28' E 036°43'.

Length 141 m; draft 2.9 m.

Type: Tanker. MMSI: 273313860.

Date/timePositionNaut miles runAvg speedWind from/ knotsBaromVisibWave heightAir tempDewpointWater temp
2018-Jun-17 10:49N 45°28' E 036°43'3 8.6
2018-Jun-17 10:29N 45°25' E 036°42'4 8.0
2018-Jun-17 10:00N 45°21' E 036°40'3 6.6
2018-Jun-17 09:30N 45°20' E 036°36'6 5.6
2018-Jun-17 08:31N 45°17' E 036°29'0 1.0
2018-Jun-17 08:29N 45°17' E 036°29'11 0.6
2018-Jun-16 15:24N 45°07' E 036°33'5 7.8
2018-Jun-16 14:48N 45°10' E 036°28'2 8.5
2018-Jun-16 14:30N 45°12' E 036°28'4 8.1
2018-Jun-16 14:00N 45°17' E 036°28'3 5.9
2018-Jun-16 13:31N 45°19' E 036°31'4 8.1
2018-Jun-16 13:01N 45°20' E 036°36'4 7.3
2018-Jun-16 12:30N 45°23' E 036°40'4 7.2
2018-Jun-16 12:00N 45°27' E 036°41'3 5.1
2018-Jun-16 11:31N 45°29' E 036°40'0 0.0
2018-Jun-16 10:59N 45°29' E 036°40'0 0.1
2018-Jun-16 10:31N 45°29' E 036°40'4 7.1
2018-Jun-16 09:57N 45°31' E 036°45'  

Dump ship's entire track history